Latest Coastal Weather Observations for Montague Island

IDN60701

Issued at 3:31 pm EDT Wednesday 1 April 2015 (issued every 10 minutes, with the page automatically refreshed every 10 minutes)

About coastal observations | Map of coastal stations | Coastal observations for NSW | Marine services | Other Formats
Station Details ID: 069017 Name: MONTAGUE ISLAND LIGHTHOUSE Lat: -36.25 Lon: 150.23 Height: 52.0 m
Data from the previous 72 hours. | See also: Recent months at Montague Island
Date/Time
EDT
Temp

°C
Wind Pressure Rain
since 9am
mm
Weather Cloud Vis
km
Sea
Height
m
Swell
Dir
 
Speed
knots
Gust
knots
hPa Trend Height
m
Period
s
Dir
01/03:30pm 22.6 NNE 23 29 1017.9 - 0.0 - - - - - - -
01/03:00pm 22.4 NNE 25 29 1018.3 - 0.0 - - - - - - -
01/02:30pm 22.5 NNE 24 28 1018.9 - 0.0 - - - - - - -
01/02:00pm 22.4 NNE 22 26 1019.6 - 0.0 - - - - - - -
01/01:30pm 22.4 NNE 19 22 1020.3 - 0.0 - - - - - - -
01/01:00pm 22.4 NNE 19 23 1020.8 - 0.0 - - - - - - -
01/12:30pm 22.0 NNE 21 25 1021.6 - 0.0 - - - - - - -
01/12:00pm 23.0 N 16 21 1021.9 - 0.0 - - - - - - -
01/11:30am 22.6 N 15 19 1022.4 - 0.0 - - - - - - -
01/11:00am 22.1 NNW 13 18 1022.9 - 0.0 - - - - - - -
01/10:30am 21.4 NNW 14 19 1023.2 - 0.0 - - - - - - -
01/10:00am 20.9 N 16 20 1023.6 - 0.0 - - - - - - -
01/09:30am 20.1 N 13 18 1023.7 - 0.0 - - - - - - -
01/09:00am 19.1 NNW 12 14 1023.9 - 0.0 - - - - - - -
01/08:30am 18.9 NNW 11 13 1023.7 - 0.0 - - - - - - -
01/08:00am 18.9 NNW 11 15 1023.4 - 0.0 - - - - - - -
01/07:30am 18.8 NNW 11 14 1023.1 - 0.0 - - - - - - -
01/07:00am 18.6 N 13 15 1022.9 - 0.0 - - - - - - -
01/06:30am 18.5 NNW 11 14 1022.8 - 0.0 - - - - - - -
01/06:00am 18.2 N 12 15 1022.8 - 0.0 - - - - - - -
01/05:30am 18.0 N 12 14 1022.8 - 0.0 - - - - - - -
01/05:00am 18.2 NNW 12 14 1022.9 - 0.0 - - - - - - -
01/04:30am 18.4 NNW 11 15 1023.2 - 0.0 - - - - - - -
01/04:00am 18.6 N 11 13 1023.3 - 0.0 - - - - - - -
01/03:30am 18.8 NNW 11 13 1023.7 - 0.0 - - - - - - -
01/03:00am 19.4 N 12 15 1024.0 - 0.0 - - - - - - -
01/02:30am 19.5 N 12 15 1024.3 - 0.0 - - - - - - -
01/02:00am 19.5 NNW 11 15 1024.6 - 0.0 - - - - - - -
01/01:30am 19.6 NNW 11 14 1024.8 - 0.0 - - - - - - -
01/01:00am 19.6 NNW 11 14 1024.9 - 0.0 - - - - - - -
01/12:30am 19.5 NW 11 13 1025.1 - 0.0 - - - - - - -
01/12:00am 19.6 NNW 12 14 1025.1 - 0.0 - - - - - - -
 
Date/Time
EDT
Temp

°C
Wind Pressure Rain
since 9am
mm
Weather Cloud Vis
km
Sea
Height
m
Swell
Dir
 
Speed
knots
Gust
knots
hPa Trend Height
m
Period
s
Dir
31/11:30pm 19.8 NNW 11 13 1025.3 - 0.0 - - - - - - -
31/11:00pm 20.0 NNW 11 14 1025.3 - 0.0 - - - - - - -
31/10:30pm 20.9 N 15 19 1025.7 - 0.0 - - - - - - -
31/10:00pm 21.1 NNE 15 18 1025.7 - 0.0 - - - - - - -
31/09:30pm 21.0 N 12 15 1026.1 - 0.0 - - - - - - -
31/09:00pm 21.1 NNE 15 19 1025.6 - 0.0 - - - - - - -
31/08:30pm 21.1 NNE 16 18 1025.4 - 0.0 - - - - - - -
31/08:00pm 21.0 NNE 15 18 1025.1 - 0.0 - - - - - - -
31/07:30pm 20.8 NE 14 18 1024.7 - 0.0 - - - - - - -
31/07:00pm 20.9 NE 13 16 1024.5 - 0.0 - - - - - - -
31/06:30pm 20.9 NE 12 15 1024.4 - 0.0 - - - - - - -
31/06:00pm 21.1 NE 13 15 1024.1 - 0.0 - - - - - - -
31/05:30pm 21.1 NE 13 16 1023.9 - 0.0 - - - - - - -
31/05:00pm 21.3 ENE 12 15 1024.0 - 0.0 - - - - - - -
31/04:30pm 21.5 NE 11 14 1024.3 - 0.0 - - - - - - -
31/04:00pm 21.4 NE 11 14 1024.6 - 0.0 - - - - - - -
31/03:30pm 21.7 ENE 11 13 1024.8 - 0.0 - - - - - - -
31/03:00pm 22.1 ENE 8 10 1025.2 - 0.0 - - - - - - -
31/02:30pm 22.1 ENE 6 7 1025.5 - 0.0 - - - - - - -
31/02:00pm 21.9 E 5 6 1025.8 - 0.0 - - - - - - -
31/01:30pm 21.6 ESE 4 6 1026.3 - 0.0 - - - - - - -
31/01:00pm 22.5 SSE 5 6 1026.7 - 0.0 - - - - - - -
31/12:30pm 22.0 S 6 8 1027.1 - 0.0 - - - - - - -
31/12:00pm 21.6 SSW 6 8 1027.5 - 0.0 - - - - - - -
31/11:30am 21.5 SSW 7 10 1027.8 - 0.0 - - - - - - -
31/11:00am 21.3 SSW 8 10 1027.9 - 0.0 - - - - - - -
31/10:30am 21.4 SW 7 9 1027.7 - 0.0 - - - - - - -
31/10:00am 21.2 WSW 5 7 1027.6 - 0.0 - - - - - - -
31/09:30am 20.2 WSW 5 8 1027.5 - 0.0 - - - - - - -
31/09:00am 19.2 WSW 6 7 1027.0 - 0.0 - - - - - - -
31/08:30am 18.1 W 6 7 1026.7 - 0.0 - - - - - - -
31/08:00am 17.7 W 7 9 1026.4 - 0.0 - - - - - - -
31/07:30am 17.7 WSW 7 9 1026.0 - 0.0 - - - - - - -
31/07:00am 17.6 WSW 8 10 1025.8 - 0.0 - - - - - - -
31/06:30am 17.9 WSW 9 13 1025.6 - 0.0 - - - - - - -
31/06:00am 17.7 WSW 9 12 1025.3 - 0.0 - - - - - - -
31/05:30am 17.8 WSW 12 15 1025.3 - 0.0 - - - - - - -
31/05:00am 17.8 SW 13 16 1025.0 - 0.0 - - - - - - -
31/04:30am 18.0 SW 11 14 1025.0 - 0.0 - - - - - - -
31/04:00am 18.0 SW 10 12 1025.2 - 0.0 - - - - - - -
31/03:30am 18.1 SW 10 11 1025.5 - 0.0 - - - - - - -
31/03:00am 18.1 SW 11 14 1025.6 - 0.0 - - - - - - -
31/02:30am 18.1 SW 9 11 1025.7 - 0.0 - - - - - - -
31/02:00am 17.9 SW 8 10 1025.8 - 0.0 - - - - - - -
31/01:30am 18.0 WSW 6 8 1025.9 - 0.0 - - - - - - -
31/01:00am 18.1 SW 7 9 1025.9 - 0.0 - - - - - - -
31/12:30am 18.3 SW 6 7 1025.8 - 0.0 - - - - - - -
31/12:00am 18.3 SW 6 8 1025.7 - 0.0 - - - - - - -
 
Date/Time
EDT
Temp

°C
Wind Pressure Rain
since 9am
mm
Weather Cloud Vis
km
Sea
Height
m
Swell
Dir
 
Speed
knots
Gust
knots
hPa Trend Height
m
Period
s
Dir
30/11:30pm 18.4 WSW 6 8 1025.7 - 0.0 - - - - - - -
30/11:00pm 18.5 SW 7 9 1025.6 - 0.0 - - - - - - -
30/10:30pm 18.9 SW 8 9 1025.7 - 0.0 - - - - - - -
30/10:00pm 19.1 SSW 6 7 1025.6 - 0.0 - - - - - - -
30/09:30pm 19.1 SW 5 7 1025.7 - 0.0 - - - - - - -
30/09:00pm 19.2 SW 4 5 1025.7 - 0.0 - - - - - - -
30/08:30pm 19.2 WSW 4 6 1025.3 - 0.0 - - - - - - -
30/08:00pm 19.2 W 4 6 1025.0 - 0.0 - - - - - - -
30/07:30pm 19.2 WNW 1 1 1024.6 - 0.0 - - - - - - -
30/07:00pm 19.6 N 2 4 1024.2 - 0.0 - - - - - - -
30/06:30pm 19.9 NNE 4 6 1023.8 - 0.0 - - - - - - -
30/06:00pm 20.1 NNE 3 5 1023.5 - 0.0 - - - - - - -
30/05:30pm 20.0 NNE 4 7 1023.2 - 0.0 - - - - - - -
30/05:00pm 20.0 NE 5 7 1022.8 - 0.0 - - - - - - -
30/04:30pm 20.0 ENE 4 6 1022.6 - 0.0 - - - - - - -
30/04:00pm 20.1 NE 4 5 1022.5 - 0.0 - - - - - - -
30/03:30pm 20.4 NNE 4 7 1022.7 - 0.0 - - - - - - -
30/03:00pm 20.3 NNE 3 5 1022.7 - 0.0 - - - - - - -
30/02:30pm 20.3 NNE 2 4 1022.7 - 0.0 - - - - - - -
30/02:00pm 20.1 NE 3 5 1022.9 - 0.0 - - - - - - -
30/01:30pm 20.5 E 1 3 1023.4 - 0.0 - - - - - - -
30/01:00pm 20.5 SW 2 3 1023.6 - 0.0 - - - - - - -
30/12:30pm 20.1 SSW 3 5 1023.9 - 0.0 - - - - - - -
30/12:00pm 20.4 SW 4 6 1024.1 - 0.0 - - - - - - -
30/11:30am 20.1 SSW 6 9 1024.5 - 0.0 - - - - - - -
30/11:00am 20.2 SW 5 8 1024.8 - 0.0 - - - - - - -
30/10:30am 20.0 WSW 4 6 1024.9 - 0.0 - - - - - - -
30/10:00am 19.3 W 4 6 1024.9 - 0.0 - - - - - - -
30/09:30am 18.3 W 6 8 1024.8 - 0.0 - - - - - - -
30/09:00am 18.2 W 6 7 1024.6 - 0.0 - - - - - - -
30/08:30am 17.9 W 7 8 1024.4 - 0.0 - - - - - - -
30/08:00am 17.4 W 7 8 1024.1 - 0.0 - - - - - - -
30/07:30am 17.0 WSW 8 9 1023.7 - 0.0 - - - - - - -
30/07:00am 17.1 WSW 8 10 1023.5 - 0.0 - - - - - - -
30/06:30am 17.4 WSW 8 10 1023.1 - 0.0 - - - - - - -
30/06:00am 17.7 SW 11 15 1022.6 - 0.0 - - - - - - -
30/05:30am 17.5 SW 11 14 1022.4 - 0.0 - - - - - - -
30/05:00am 17.8 WSW 11 13 1022.5 - 0.0 - - - - - - -
30/04:30am 17.9 SW 12 15 1022.4 - 0.0 - - - - - - -
30/04:00am 17.8 SW 12 15 1022.4 - 0.0 - - - - - - -
30/03:30am 17.9 SW 12 15 1022.4 - 0.0 - - - - - - -
30/03:00am 17.9 SW 13 15 1022.7 - 0.0 - - - - - - -
30/02:30am 17.9 SW 13 17 1022.8 - 0.0 - - - - - - -
30/02:00am 18.0 SW 13 16 1022.9 - 0.0 - - - - - - -
30/01:30am 18.2 SW 12 14 1022.9 - 0.0 - - - - - - -
30/01:00am 18.4 SW 11 13 1023.1 - 0.0 - - - - - - -
30/12:30am 18.3 SW 9 11 1023.1 - 0.0 - - - - - - -
30/12:00am 18.4 SW 10 11 1023.1 - 0.0 - - - - - - -
 
Date/Time
EDT
Temp

°C
Wind Pressure Rain
since 9am
mm
Weather Cloud Vis
km
Sea
Height
m
Swell
Dir
 
Speed
knots
Gust
knots
hPa Trend Height
m
Period
s
Dir
29/11:30pm 18.2 SW 9 11 1023.3 - 0.0 - - - - - - -
29/11:00pm 18.3 SW 9 11 1023.3 - 0.0 - - - - - - -
29/10:30pm 18.6 SW 8 9 1023.1 - 0.0 - - - - - - -
29/10:00pm 18.9 WSW 6 7 1023.1 - 0.0 - - - - - - -
29/09:30pm 19.3 SSE 2 3 1022.9 - 0.0 - - - - - - -
29/09:00pm 19.3 SSE 2 3 1022.8 - 0.0 - - - - - - -
29/08:30pm 19.6 SE 4 5 1022.3 - 0.0 - - - - - - -
29/08:00pm 19.6 SE 4 6 1021.8 - 0.0 - - - - - - -
29/07:30pm 19.4 SE 3 4 1021.7 - 0.0 - - - - - - -
29/07:00pm 19.5 E 4 6 1021.2 - 0.0 - - - - - - -
29/06:30pm 19.4 E 5 7 1020.9 - 0.0 - - - - - - -
29/06:00pm 19.6 E 6 9 1020.6 - 0.0 - - - - - - -
29/05:30pm 20.0 E 6 8 1020.6 - 0.0 - - - - - - -
29/05:00pm 20.0 E 9 11 1020.2 - 0.0 - - - - - - -
29/04:30pm 20.2 ESE 9 11 1020.0 - 0.0 - - - - - - -
29/04:00pm 20.7 E 7 9 1020.1 - 0.0 - - - - - - -

Other Formats:

Comma delimited format used in spreadsheet applications
http://www.bom.gov.au/fwo/IDN60701/IDN60701.94939.axf

JavaScript Object Notation format (JSON) in row-major order
http://www.bom.gov.au/fwo/IDN60701/IDN60701.94939.json